sensor_id;sensor_type;location;lat;lon;timestamp;temperature;humidity
23769;DHT22;12064;50.890;5.424;2023-04-03T00:08:29;16.50;90.70
23769;DHT22;12064;50.890;5.424;2023-04-03T00:17:21;16.40;90.70
23769;DHT22;12064;50.890;5.424;2023-04-03T00:26:12;16.40;90.70
23769;DHT22;12064;50.890;5.424;2023-04-03T00:35:02;16.40;90.70
23769;DHT22;12064;50.890;5.424;2023-04-03T00:43:53;16.30;90.70
23769;DHT22;12064;50.890;5.424;2023-04-03T00:52:44;16.40;90.60
23769;DHT22;12064;50.890;5.424;2023-04-03T01:01:37;16.30;90.70
23769;DHT22;12064;50.890;5.424;2023-04-03T01:10:28;16.30;90.80
23769;DHT22;12064;50.890;5.424;2023-04-03T01:19:19;16.30;90.80
23769;DHT22;12064;50.890;5.424;2023-04-03T01:28:27;16.30;90.90
23769;DHT22;12064;50.890;5.424;2023-04-03T01:37:18;16.20;90.90
23769;DHT22;12064;50.890;5.424;2023-04-03T01:46:09;16.30;91.30
23769;DHT22;12064;50.890;5.424;2023-04-03T01:55:00;16.30;91.00
23769;DHT22;12064;50.890;5.424;2023-04-03T02:03:52;16.30;90.90
23769;DHT22;12064;50.890;5.424;2023-04-03T02:12:42;16.30;91.00
23769;DHT22;12064;50.890;5.424;2023-04-03T02:21:33;16.20;91.00
23769;DHT22;12064;50.890;5.424;2023-04-03T02:30:23;16.20;91.00
23769;DHT22;12064;50.890;5.424;2023-04-03T02:39:14;16.20;90.90
23769;DHT22;12064;50.890;5.424;2023-04-03T02:48:05;16.20;91.00
23769;DHT22;12064;50.890;5.424;2023-04-03T02:56:56;16.20;91.00
23769;DHT22;12064;50.890;5.424;2023-04-03T03:05:47;16.10;91.10
23769;DHT22;12064;50.890;5.424;2023-04-03T03:14:38;16.20;91.00
23769;DHT22;12064;50.890;5.424;2023-04-03T03:23:30;16.20;91.20
23769;DHT22;12064;50.890;5.424;2023-04-03T03:32:22;16.20;91.10
23769;DHT22;12064;50.890;5.424;2023-04-03T03:41:13;16.20;91.20
23769;DHT22;12064;50.890;5.424;2023-04-03T03:50:03;16.20;91.20
23769;DHT22;12064;50.890;5.424;2023-04-03T03:58:54;16.20;91.30
23769;DHT22;12064;50.890;5.424;2023-04-03T04:07:46;16.20;91.40
23769;DHT22;12064;50.890;5.424;2023-04-03T04:16:37;16.20;91.50
23769;DHT22;12064;50.890;5.424;2023-04-03T04:25:27;16.20;91.30
23769;DHT22;12064;50.890;5.424;2023-04-03T04:34:18;16.20;90.90
23769;DHT22;12064;50.890;5.424;2023-04-03T04:43:09;16.20;90.70
23769;DHT22;12064;50.890;5.424;2023-04-03T04:52:01;16.20;90.50
23769;DHT22;12064;50.890;5.424;2023-04-03T05:01:06;16.20;90.30
23769;DHT22;12064;50.890;5.424;2023-04-03T05:09:56;16.10;90.20
23769;DHT22;12064;50.890;5.424;2023-04-03T05:18:47;16.10;90.10
23769;DHT22;12064;50.890;5.424;2023-04-03T05:27:38;16.10;90.00
23769;DHT22;12064;50.890;5.424;2023-04-03T05:36:28;16.10;90.20
23769;DHT22;12064;50.890;5.424;2023-04-03T05:45:19;16.00;90.30
23769;DHT22;12064;50.890;5.424;2023-04-03T05:54:19;16.00;90.40
23769;DHT22;12064;50.890;5.424;2023-04-03T06:03:11;16.00;90.40
23769;DHT22;12064;50.890;5.424;2023-04-03T06:12:02;16.00;90.30
23769;DHT22;12064;50.890;5.424;2023-04-03T06:20:52;16.00;90.40
23769;DHT22;12064;50.890;5.424;2023-04-03T06:29:43;16.10;90.30
23769;DHT22;12064;50.890;5.424;2023-04-03T06:38:35;16.10;90.30
23769;DHT22;12064;50.890;5.424;2023-04-03T06:47:26;16.10;90.30
23769;DHT22;12064;50.890;5.424;2023-04-03T06:56:17;16.10;90.20
23769;DHT22;12064;50.890;5.424;2023-04-03T07:05:08;16.10;90.30
23769;DHT22;12064;50.890;5.424;2023-04-03T07:13:59;16.00;90.30
23769;DHT22;12064;50.890;5.424;2023-04-03T07:22:50;16.10;90.40
23769;DHT22;12064;50.890;5.424;2023-04-03T07:31:40;16.10;90.40
23769;DHT22;12064;50.890;5.424;2023-04-03T07:40:32;16.20;90.10
23769;DHT22;12064;50.890;5.424;2023-04-03T07:49:23;16.70;88.50
23769;DHT22;12064;50.890;5.424;2023-04-03T07:58:17;17.20;86.20
23769;DHT22;12064;50.890;5.424;2023-04-03T08:07:08;17.50;84.40
23769;DHT22;12064;50.890;5.424;2023-04-03T08:16:14;17.80;83.30
23769;DHT22;12064;50.890;5.424;2023-04-03T08:25:07;18.00;82.80
23769;DHT22;12064;50.890;5.424;2023-04-03T08:33:57;18.10;82.50
23769;DHT22;12064;50.890;5.424;2023-04-03T08:43:01;18.30;82.00
23769;DHT22;12064;50.890;5.424;2023-04-03T08:51:56;18.00;82.80
23769;DHT22;12064;50.890;5.424;2023-04-03T09:01:03;18.00;82.90
23769;DHT22;12064;50.890;5.424;2023-04-03T09:09:55;18.00;82.70
23769;DHT22;12064;50.890;5.424;2023-04-03T09:18:57;18.00;82.70
23769;DHT22;12064;50.890;5.424;2023-04-03T09:27:49;17.90;82.70
23769;DHT22;12064;50.890;5.424;2023-04-03T09:36:44;18.00;82.60
23769;DHT22;12064;50.890;5.424;2023-04-03T09:45:35;18.00;82.40
23769;DHT22;12064;50.890;5.424;2023-04-03T09:54:37;18.00;82.30
23769;DHT22;12064;50.890;5.424;2023-04-03T10:03:31;18.10;82.00
23769;DHT22;12064;50.890;5.424;2023-04-03T10:12:22;18.10;81.90
23769;DHT22;12064;50.890;5.424;2023-04-03T10:30:40;18.10;81.70
23769;DHT22;12064;50.890;5.424;2023-04-03T10:49:28;18.10;81.30
23769;DHT22;12064;50.890;5.424;2023-04-03T10:58:44;18.10;81.30
23769;DHT22;12064;50.890;5.424;2023-04-03T11:07:40;18.20;81.00
23769;DHT22;12064;50.890;5.424;2023-04-03T11:16:38;18.20;80.50
23769;DHT22;12064;50.890;5.424;2023-04-03T11:25:36;18.20;80.50
23769;DHT22;12064;50.890;5.424;2023-04-03T11:34:36;18.10;80.60
23769;DHT22;12064;50.890;5.424;2023-04-03T11:43:31;18.20;80.60
23769;DHT22;12064;50.890;5.424;2023-04-03T12:29:34;18.20;80.20
23769;DHT22;12064;50.890;5.424;2023-04-03T12:47:44;18.20;80.30
23769;DHT22;12064;50.890;5.424;2023-04-03T12:56:35;18.20;76.50
23769;DHT22;12064;50.890;5.424;2023-04-03T13:05:27;18.20;79.10
23769;DHT22;12064;50.890;5.424;2023-04-03T13:14:23;18.20;79.70
23769;DHT22;12064;50.890;5.424;2023-04-03T13:23:17;18.20;79.70
23769;DHT22;12064;50.890;5.424;2023-04-03T13:32:24;18.30;79.80
23769;DHT22;12064;50.890;5.424;2023-04-03T13:41:31;18.20;79.60
23769;DHT22;12064;50.890;5.424;2023-04-03T13:50:24;18.30;78.80
23769;DHT22;12064;50.890;5.424;2023-04-03T14:08:06;18.40;77.50
23769;DHT22;12064;50.890;5.424;2023-04-03T14:17:00;18.50;77.20
23769;DHT22;12064;50.890;5.424;2023-04-03T14:34:52;18.40;75.90
23769;DHT22;12064;50.890;5.424;2023-04-03T14:43:44;18.40;75.30
23769;DHT22;12064;50.890;5.424;2023-04-03T14:52:36;18.40;75.30
23769;DHT22;12064;50.890;5.424;2023-04-03T15:01:27;18.50;76.00
23769;DHT22;12064;50.890;5.424;2023-04-03T15:10:27;18.50;76.20
23769;DHT22;12064;50.890;5.424;2023-04-03T15:19:18;17.80;68.00
23769;DHT22;12064;50.890;5.424;2023-04-03T15:28:30;18.20;70.20
23769;DHT22;12064;50.890;5.424;2023-04-03T15:37:22;18.30;71.60
23769;DHT22;12064;50.890;5.424;2023-04-03T15:46:13;18.40;72.80
23769;DHT22;12064;50.890;5.424;2023-04-03T15:55:04;18.40;73.60
23769;DHT22;12064;50.890;5.424;2023-04-03T16:03:56;18.40;73.30
23769;DHT22;12064;50.890;5.424;2023-04-03T16:12:47;18.50;74.10
23769;DHT22;12064;50.890;5.424;2023-04-03T16:21:38;18.50;73.90
23769;DHT22;12064;50.890;5.424;2023-04-03T16:30:29;18.50;74.00
23769;DHT22;12064;50.890;5.424;2023-04-03T16:39:19;18.40;74.00
23769;DHT22;12064;50.890;5.424;2023-04-03T16:48:10;18.40;73.70
23769;DHT22;12064;50.890;5.424;2023-04-03T16:57:01;18.40;73.50
23769;DHT22;12064;50.890;5.424;2023-04-03T17:05:52;18.40;73.50
23769;DHT22;12064;50.890;5.424;2023-04-03T17:14:43;18.80;74.40
23769;DHT22;12064;50.890;5.424;2023-04-03T17:23:34;18.70;74.40
23769;DHT22;12064;50.890;5.424;2023-04-03T17:32:26;18.60;74.10
23769;DHT22;12064;50.890;5.424;2023-04-03T17:41:16;18.60;74.10
23769;DHT22;12064;50.890;5.424;2023-04-03T17:50:07;18.70;74.80
23769;DHT22;12064;50.890;5.424;2023-04-03T17:58:58;18.70;74.70
23769;DHT22;12064;50.890;5.424;2023-04-03T18:07:52;18.70;75.10
23769;DHT22;12064;50.890;5.424;2023-04-03T18:16:43;18.70;75.30
23769;DHT22;12064;50.890;5.424;2023-04-03T18:25:35;18.70;75.30
23769;DHT22;12064;50.890;5.424;2023-04-03T18:34:26;18.70;75.60
23769;DHT22;12064;50.890;5.424;2023-04-03T18:43:17;18.70;75.70
23769;DHT22;12064;50.890;5.424;2023-04-03T18:52:08;18.70;75.80
23769;DHT22;12064;50.890;5.424;2023-04-03T19:00:59;18.60;76.00
23769;DHT22;12064;50.890;5.424;2023-04-03T19:09:50;18.60;76.30
23769;DHT22;12064;50.890;5.424;2023-04-03T19:18:41;18.50;76.50
23769;DHT22;12064;50.890;5.424;2023-04-03T19:27:32;18.50;76.70
23769;DHT22;12064;50.890;5.424;2023-04-03T19:36:23;18.40;77.20
23769;DHT22;12064;50.890;5.424;2023-04-03T19:45:14;18.40;77.20
23769;DHT22;12064;50.890;5.424;2023-04-03T19:54:07;18.30;78.00
23769;DHT22;12064;50.890;5.424;2023-04-03T20:02:58;18.30;79.20
23769;DHT22;12064;50.890;5.424;2023-04-03T20:11:48;18.30;79.40
23769;DHT22;12064;50.890;5.424;2023-04-03T20:20:39;18.20;79.30
23769;DHT22;12064;50.890;5.424;2023-04-03T20:29:35;18.10;79.40
23769;DHT22;12064;50.890;5.424;2023-04-03T20:38:26;18.00;79.20
23769;DHT22;12064;50.890;5.424;2023-04-03T20:47:16;17.90;79.30
23769;DHT22;12064;50.890;5.424;2023-04-03T20:56:07;17.90;79.00
23769;DHT22;12064;50.890;5.424;2023-04-03T21:04:59;17.90;78.80
23769;DHT22;12064;50.890;5.424;2023-04-03T21:23:21;17.70;79.20
23769;DHT22;12064;50.890;5.424;2023-04-03T21:32:13;17.70;79.20
23769;DHT22;12064;50.890;5.424;2023-04-03T21:41:04;17.70;79.80
23769;DHT22;12064;50.890;5.424;2023-04-03T21:49:57;17.60;79.90
23769;DHT22;12064;50.890;5.424;2023-04-03T21:58:49;17.60;80.20
23769;DHT22;12064;50.890;5.424;2023-04-03T22:07:43;17.50;80.30
23769;DHT22;12064;50.890;5.424;2023-04-03T22:16:35;17.50;80.30
23769;DHT22;12064;50.890;5.424;2023-04-03T22:25:25;17.50;80.60
23769;DHT22;12064;50.890;5.424;2023-04-03T22:34:19;17.40;80.60
23769;DHT22;12064;50.890;5.424;2023-04-03T22:43:10;17.40;80.70
23769;DHT22;12064;50.890;5.424;2023-04-03T22:52:01;17.30;80.90
23769;DHT22;12064;50.890;5.424;2023-04-03T23:01:09;17.30;80.90
23769;DHT22;12064;50.890;5.424;2023-04-03T23:10:00;17.30;80.80
23769;DHT22;12064;50.890;5.424;2023-04-03T23:18:51;17.30;81.20
23769;DHT22;12064;50.890;5.424;2023-04-03T23:27:52;17.30;81.30
23769;DHT22;12064;50.890;5.424;2023-04-03T23:36:42;17.20;81.50
23769;DHT22;12064;50.890;5.424;2023-04-03T23:45:33;17.10;81.70
23769;DHT22;12064;50.890;5.424;2023-04-03T23:54:24;17.10;82.10
